^^
Saratoga-Weather Station Historical Data
Daily Summary for December 3, 2020 Units:  Both    English   Metric
Daily Weekly Monthly Yearly Custom
  High: Low: Average:
Temperature: 40.8 °F /  4.9 °C 35.1 °F /  1.7 °C 38.1 °F /  3.4 °C
Dew Point: 38.8 °F /  3.8 °C 33.8 °F /  1 °C 36.3 °F /  2.4 °C
Humidity: 95% 89% 93%
Wind Speed: 8.9mph /  14.3km/h - 2.2mph /  3.5km/h
Wind Gust: 13mph /  20.9km/h - -
Wind- - East
Pressure: 29.9 in /  1012.5 hPa 29.1 in /  986.5 hPa -
Precipitation: 0.08 in /  2.0 mm    
Historical Graphs
 
 
Tabular Data for December 3, 2020
Time Temperature Dew Point Pressure Wind Wind Speed Wind Gust Humidity Rainfall Rate (Hourly) solar
00:02 35.1 °F /  1.7 °C 33.8 °F /  1 °C 29.9in /  1012.5hPa Calm     95% 0.02in /  0.5mm 0 W/m2
00:07 35.1 °F /  1.7 °C 33.8 °F /  1 °C 29.9in /  1012.5hPa Calm     95% 0.02in /  0.5mm 0 W/m2
00:12 35.1 °F /  1.7 °C 33.8 °F /  1 °C 29.9in /  1012.5hPa Calm     95% 0.02in /  0.5mm 0 W/m2
00:17 35.1 °F /  1.7 °C 33.8 °F /  1 °C 29.9in /  1012.2hPa Calm     95% 0.02in /  0.5mm 0 W/m2
00:22 35.1 °F /  1.7 °C 33.8 °F /  1 °C 29.9in /  1012.2hPa East 0.9mph /  1.4km/h 1mph /  1.6km/h 95% 0.02in /  0.5mm 0 W/m2
00:27 35.1 °F /  1.7 °C 33.8 °F /  1 °C 29.9in /  1012.2hPa Calm   1mph /  1.6km/h 95% 0.02in /  0.5mm 0 W/m2
00:32 35.1 °F /  1.7 °C 33.8 °F /  1 °C 29.9in /  1012.2hPa Calm   1mph /  1.6km/h 95% 0.02in /  0.5mm 0 W/m2
00:37 35.1 °F /  1.7 °C 33.8 °F /  1 °C 29.9in /  1011.9hPa NE 2mph /  3.2km/h 3mph /  4.8km/h 95% 0.02in /  0.5mm 0 W/m2
00:42 35.2 °F /  1.8 °C 34 °F /  1.1 °C 29.9in /  1011.9hPa Calm   1mph /  1.6km/h 95% 0.02in /  0.5mm 0 W/m2
00:48 35.2 °F /  1.8 °C 34 °F /  1.1 °C 29.9in /  1011.9hPa Calm   3mph /  4.8km/h 95% 0.02in /  0.5mm 0 W/m2
00:53 35.2 °F /  1.8 °C 34 °F /  1.1 °C 29.9in /  1011.9hPa East 2.9mph /  4.7km/h 4mph /  6.4km/h 95% 0.01in /  0.2mm 0 W/m2
00:58 35.2 °F /  1.8 °C 34 °F /  1.1 °C 29.9in /  1011.9hPa Calm   3mph /  4.8km/h 95% 0.01in /  0.2mm 0 W/m2
01:03 35.2 °F /  1.8 °C 34 °F /  1.1 °C 29.9in /  1011.5hPa Calm   5mph /  8km/h 95% 0.01in /  0.2mm 0 W/m2
01:08 35.2 °F /  1.8 °C 34 °F /  1.1 °C 29.9in /  1011.5hPa Calm   2mph /  3.2km/h 95% 0.01in /  0.2mm 0 W/m2
01:13 35.2 °F /  1.8 °C 34 °F /  1.1 °C 29.9in /  1011.5hPa NNE 0.9mph /  1.4km/h 5mph /  8km/h 95% 0.01in /  0.2mm 0 W/m2
01:18 35.2 °F /  1.8 °C 34 °F /  1.1 °C 29.9in /  1011.5hPa NW 0.9mph /  1.4km/h 2mph /  3.2km/h 95% 0.01in /  0.2mm 0 W/m2
01:23 35.4 °F /  1.9 °C 34.2 °F /  1.2 °C 29.9in /  1011.5hPa NNW 0.9mph /  1.4km/h 5mph /  8km/h 95% 0.01in /  0.2mm 0 W/m2
01:28 35.4 °F /  1.9 °C 34.2 °F /  1.2 °C 29.9in /  1011.2hPa ENE 2mph /  3.2km/h 2mph /  3.2km/h 95% 0.01in /  0.2mm 0 W/m2
01:33 35.4 °F /  1.9 °C 34.2 °F /  1.2 °C 29.9in /  1011.2hPa NE 0.9mph /  1.4km/h 5mph /  8km/h 95% 0in /  0.0mm 0 W/m2
01:38 35.4 °F /  1.9 °C 34.2 °F /  1.2 °C 29.9in /  1010.8hPa Calm   2mph /  3.2km/h 95% 0in /  0.0mm 0 W/m2
01:43 35.4 °F /  1.9 °C 34.2 °F /  1.2 °C 29.9in /  1010.8hPa Calm   4mph /  6.4km/h 95% 0in /  0.0mm 0 W/m2
01:48 35.6 °F /  2 °C 34.3 °F /  1.3 °C 29.9in /  1011.2hPa NE 0.9mph /  1.4km/h 2mph /  3.2km/h 95% 0in /  0.0mm 0 W/m2
01:53 35.6 °F /  2 °C 34.3 °F /  1.3 °C 29.9in /  1010.8hPa Calm   3mph /  4.8km/h 95% 0in /  0.0mm 0 W/m2
01:58 35.6 °F /  2 °C 34.3 °F /  1.3 °C 29.9in /  1010.8hPa Calm   1mph /  1.6km/h 95% 0in /  0.0mm 0 W/m2
02:03 35.6 °F /  2 °C 34.3 °F /  1.3 °C 29.9in /  1010.8hPa ENE 0.9mph /  1.4km/h 3mph /  4.8km/h 95% 0in /  0.0mm 0 W/m2
02:08 35.6 °F /  2 °C 34.3 °F /  1.3 °C 29.9in /  1010.8hPa East 2mph /  3.2km/h 2mph /  3.2km/h 95% 0in /  0.0mm 0 W/m2
02:13 35.8 °F /  2.1 °C 34.5 °F /  1.4 °C 29.9in /  1010.8hPa East 0.9mph /  1.4km/h 1mph /  1.6km/h 95% 0in /  0.0mm 0 W/m2
02:18 35.8 °F /  2.1 °C 34.5 °F /  1.4 °C 29.8in /  1010.5hPa East 2.9mph /  4.7km/h 4mph /  6.4km/h 95% 0in /  0.0mm 0 W/m2
02:23 35.8 °F /  2.1 °C 34.5 °F /  1.4 °C 29.8in /  1010.5hPa ESE 2mph /  3.2km/h 3mph /  4.8km/h 95% 0in /  0.0mm 0 W/m2
02:28 35.8 °F /  2.1 °C 34.5 °F /  1.4 °C 29.8in /  1010.5hPa Calm   1mph /  1.6km/h 95% 0in /  0.0mm 0 W/m2
02:33 35.8 °F /  2.1 °C 34.5 °F /  1.4 °C 29.8in /  1010.2hPa SSW 0.9mph /  1.4km/h 2mph /  3.2km/h 95% 0in /  0.0mm 0 W/m2
02:38 35.8 °F /  2.1 °C 34.5 °F /  1.4 °C 29.8in /  1010.2hPa West 0.9mph /  1.4km/h 2mph /  3.2km/h 95% 0in /  0.0mm 0 W/m2
02:43 35.8 °F /  2.1 °C 34.5 °F /  1.4 °C 29.8in /  1010.2hPa Calm   1mph /  1.6km/h 95% 0in /  0.0mm 0 W/m2
02:48 35.8 °F /  2.1 °C 34.5 °F /  1.4 °C 29.8in /  1010.2hPa NNE 2mph /  3.2km/h 3mph /  4.8km/h 95% 0in /  0.0mm 0 W/m2
02:53 35.8 °F /  2.1 °C 34.5 °F /  1.4 °C 29.8in /  1010.2hPa Calm   1mph /  1.6km/h 95% 0in /  0.0mm 0 W/m2
02:58 36 °F /  2.2 °C 34.7 °F /  1.5 °C 29.8in /  1010.2hPa West 0.9mph /  1.4km/h 3mph /  4.8km/h 95% 0in /  0.0mm 0 W/m2
03:03 36 °F /  2.2 °C 34.7 °F /  1.5 °C 29.8in /  1009.8hPa Calm   1mph /  1.6km/h 95% 0in /  0.0mm 0 W/m2
03:08 36 °F /  2.2 °C 34.7 °F /  1.5 °C 29.8in /  1009.8hPa NNW 2mph /  3.2km/h 3mph /  4.8km/h 95% 0in /  0.0mm 0 W/m2
03:13 36 °F /  2.2 °C 34.7 °F /  1.5 °C 29.8in /  1009.8hPa WSW 2.9mph /  4.7km/h 3mph /  4.8km/h 95% 0in /  0.0mm 0 W/m2
03:18 36 °F /  2.2 °C 34.7 °F /  1.5 °C 29.8in /  1009.8hPa NW 0.9mph /  1.4km/h 2mph /  3.2km/h 95% 0in /  0.0mm 0 W/m2
03:23 36 °F /  2.2 °C 34.7 °F /  1.5 °C 29.8in /  1009.5hPa Calm   1mph /  1.6km/h 95% 0in /  0.0mm 0 W/m2
03:28 36 °F /  2.2 °C 34.3 °F /  1.3 °C 29.8in /  1009.5hPa Calm   2mph /  3.2km/h 94% 0in /  0.0mm 0 W/m2
03:33 36 °F /  2.2 °C 34.3 °F /  1.3 °C 29.8in /  1009.5hPa SE 0.9mph /  1.4km/h 3mph /  4.8km/h 94% 0in /  0.0mm 0 W/m2
03:38 36 °F /  2.2 °C 34.3 °F /  1.3 °C 29.8in /  1009.1hPa South 2mph /  3.2km/h 3mph /  4.8km/h 94% 0in /  0.0mm 0 W/m2
03:43 36 °F /  2.2 °C 34.3 °F /  1.3 °C 29.8in /  1009.1hPa Calm   1mph /  1.6km/h 94% 0in /  0.0mm 0 W/m2
03:48 36 °F /  2.2 °C 34.3 °F /  1.3 °C 29.8in /  1009.1hPa South 2mph /  3.2km/h 3mph /  4.8km/h 94% 0in /  0.0mm 0 W/m2
03:53 36 °F /  2.2 °C 34.3 °F /  1.3 °C 29.8in /  1009.1hPa WNW 2mph /  3.2km/h 3mph /  4.8km/h 94% 0in /  0.0mm 0 W/m2
03:58 36 °F /  2.2 °C 34.3 °F /  1.3 °C 29.8in /  1008.8hPa Calm   2mph /  3.2km/h 94% 0in /  0.0mm 0 W/m2
04:03 36 °F /  2.2 °C 34.3 °F /  1.3 °C 29.8in /  1008.8hPa Calm   2mph /  3.2km/h 94% 0in /  0.0mm 0 W/m2
04:08 36 °F /  2.2 °C 34.3 °F /  1.3 °C 29.8in /  1008.8hPa Calm   2mph /  3.2km/h 94% 0in /  0.0mm 0 W/m2
04:13 36 °F /  2.2 °C 34.3 °F /  1.3 °C 29.8in /  1008.8hPa NE 0.9mph /  1.4km/h 3mph /  4.8km/h 94% 0in /  0.0mm 0 W/m2
04:18 36 °F /  2.2 °C 34.3 °F /  1.3 °C 29.8in /  1008.8hPa Calm   1mph /  1.6km/h 94% 0in /  0.0mm 0 W/m2
04:23 36 °F /  2.2 °C 34.3 °F /  1.3 °C 29.8in /  1008.8hPa Calm   2mph /  3.2km/h 94% 0in /  0.0mm 0 W/m2
04:28 36 °F /  2.2 °C 34.3 °F /  1.3 °C 29.8in /  1008.8hPa ENE 2mph /  3.2km/h 2mph /  3.2km/h 94% 0in /  0.0mm 0 W/m2
04:33 36 °F /  2.2 °C 34.3 °F /  1.3 °C 29.8in /  1008.8hPa Calm   2mph /  3.2km/h 94% 0in /  0.0mm 0 W/m2
04:38 36 °F /  2.2 °C 34.3 °F /  1.3 °C 29.8in /  1008.8hPa ESE 0.9mph /  1.4km/h 3mph /  4.8km/h 94% 0in /  0.0mm 0 W/m2
04:43 36 °F /  2.2 °C 34.3 °F /  1.3 °C 29.8in /  1008.8hPa South 2mph /  3.2km/h 2mph /  3.2km/h 94% 0in /  0.0mm 0 W/m2
04:48 36 °F /  2.2 °C 34.3 °F /  1.3 °C 29.8in /  1008.8hPa Calm   3mph /  4.8km/h 94% 0in /  0.0mm 0 W/m2
04:53 36 °F /  2.2 °C 34.3 °F /  1.3 °C 29.8in /  1008.5hPa ESE 0.9mph /  1.4km/h 2mph /  3.2km/h 94% 0in /  0.0mm 0 W/m2
04:58 36 °F /  2.2 °C 34.3 °F /  1.3 °C 29.8in /  1008.5hPa Calm   2mph /  3.2km/h 94% 0in /  0.0mm 0 W/m2
05:03 36 °F /  2.2 °C 34.3 °F /  1.3 °C 29.8in /  1008.5hPa SSW 0.9mph /  1.4km/h 3mph /  4.8km/h 94% 0in /  0.0mm 0 W/m2
05:08 36.1 °F /  2.3 °C 34.5 °F /  1.4 °C 29.8in /  1008.5hPa Calm   1mph /  1.6km/h 94% 0in /  0.0mm 0 W/m2
05:13 36.1 °F /  2.3 °C 34.5 °F /  1.4 °C 29.8in /  1008.5hPa Calm   1mph /  1.6km/h 94% 0in /  0.0mm 0 W/m2
05:18 36.1 °F /  2.3 °C 34.5 °F /  1.4 °C 29.8in /  1008.1hPa ENE 0.9mph /  1.4km/h 3mph /  4.8km/h 94% 0in /  0.0mm 0 W/m2
05:23 36.1 °F /  2.3 °C 34.5 °F /  1.4 °C 29.8in /  1008.1hPa NNE 2mph /  3.2km/h 4mph /  6.4km/h 94% 0in /  0.0mm 0 W/m2
05:28 36.1 °F /  2.3 °C 34.5 °F /  1.4 °C 29.8in /  1008.1hPa Calm   1mph /  1.6km/h 94% 0in /  0.0mm 0 W/m2
05:33 36.1 °F /  2.3 °C 34.5 °F /  1.4 °C 29.8in /  1007.8hPa ESE 0.9mph /  1.4km/h 4mph /  6.4km/h 94% 0in /  0.0mm 0 W/m2
05:38 36.3 °F /  2.4 °C 34.7 °F /  1.5 °C 29.8in /  1007.8hPa SE 0.9mph /  1.4km/h 6mph /  9.7km/h 94% 0in /  0.0mm 0 W/m2
05:43 36.3 °F /  2.4 °C 34.7 °F /  1.5 °C 29.8in /  1007.8hPa Calm   2mph /  3.2km/h 94% 0in /  0.0mm 0 W/m2
05:48 36.3 °F /  2.4 °C 34.7 °F /  1.5 °C 29.8in /  1007.8hPa ENE 2mph /  3.2km/h 2mph /  3.2km/h 94% 0in /  0.0mm 0 W/m2
05:53 36.3 °F /  2.4 °C 34.7 °F /  1.5 °C 29.8in /  1007.5hPa NNE 0.9mph /  1.4km/h 4mph /  6.4km/h 94% 0in /  0.0mm 0 W/m2
05:58 36.3 °F /  2.4 °C 34.7 °F /  1.5 °C 29.8in /  1007.8hPa Calm   3mph /  4.8km/h 94% 0in /  0.0mm 0 W/m2
06:03 36.3 °F /  2.4 °C 34.7 °F /  1.5 °C 29.8in /  1007.8hPa ENE 0.9mph /  1.4km/h 3mph /  4.8km/h 94% 0in /  0.0mm 0 W/m2
06:08 36.3 °F /  2.4 °C 34.7 °F /  1.5 °C 29.8in /  1007.5hPa Calm   3mph /  4.8km/h 94% 0in /  0.0mm 0 W/m2
06:13 36.5 °F /  2.5 °C 34.9 °F /  1.6 °C 29.8in /  1007.5hPa Calm   4mph /  6.4km/h 94% 0in /  0.0mm 0 W/m2
06:18 36.5 °F /  2.5 °C 34.9 °F /  1.6 °C 29.8in /  1007.5hPa ENE 0.9mph /  1.4km/h 2mph /  3.2km/h 94% 0in /  0.0mm 0 W/m2
06:23 36.5 °F /  2.5 °C 34.9 °F /  1.6 °C 29.8in /  1007.5hPa Calm   4mph /  6.4km/h 94% 0in /  0.0mm 0 W/m2
06:28 36.5 °F /  2.5 °C 35.2 °F /  1.8 °C 29.7in /  1007.1hPa Calm   6mph /  9.7km/h 95% 0in /  0.0mm 0 W/m2
06:33 36.7 °F /  2.6 °C 35.4 °F /  1.9 °C 29.7in /  1007.1hPa East 2mph /  3.2km/h 3mph /  4.8km/h 95% 0in /  0.0mm 0 W/m2
06:38 36.7 °F /  2.6 °C 35.4 °F /  1.9 °C 29.7in /  1007.1hPa East 4mph /  6.4km/h 6mph /  9.7km/h 95% 0in /  0.0mm 0 W/m2
06:43 36.7 °F /  2.6 °C 35.4 °F /  1.9 °C 29.7in /  1007.1hPa Calm   2mph /  3.2km/h 95% 0in /  0.0mm 0 W/m2
06:48 36.7 °F /  2.6 °C 35.4 °F /  1.9 °C 29.7in /  1007.1hPa East 4mph /  6.4km/h 4mph /  6.4km/h 95% 0in /  0.0mm 0 W/m2
06:53 36.7 °F /  2.6 °C 35.4 °F /  1.9 °C 29.7in /  1007.1hPa East 2mph /  3.2km/h 2mph /  3.2km/h 95% 0in /  0.0mm 0 W/m2
06:58 36.9 °F /  2.7 °C 35.6 °F /  2 °C 29.7in /  1006.8hPa NNE 2.9mph /  4.7km/h 3mph /  4.8km/h 95% 0in /  0.0mm 0 W/m2
07:03 36.9 °F /  2.7 °C 35.6 °F /  2 °C 29.7in /  1006.8hPa NE 0.9mph /  1.4km/h 3mph /  4.8km/h 95% 0in /  0.0mm 0 W/m2
07:08 36.9 °F /  2.7 °C 35.6 °F /  2 °C 29.7in /  1006.8hPa Calm   1mph /  1.6km/h 95% 0in /  0.0mm 0 W/m2
07:13 36.9 °F /  2.7 °C 35.6 °F /  2 °C 29.7in /  1006.8hPa East 2.9mph /  4.7km/h 4mph /  6.4km/h 95% 0in /  0.0mm 0 W/m2
07:18 36.9 °F /  2.7 °C 35.6 °F /  2 °C 29.7in /  1006.8hPa ENE 0.9mph /  1.4km/h 6mph /  9.7km/h 95% 0in /  0.0mm 0 W/m2
07:23 36.9 °F /  2.7 °C 35.6 °F /  2 °C 29.7in /  1006.8hPa NNW 0.9mph /  1.4km/h 2mph /  3.2km/h 95% 0in /  0.0mm 0 W/m2
07:28 36.9 °F /  2.7 °C 35.6 °F /  2 °C 29.7in /  1006.4hPa NNE 0.9mph /  1.4km/h 2mph /  3.2km/h 95% 0in /  0.0mm 0 W/m2
07:33 36.9 °F /  2.7 °C 35.6 °F /  2 °C 29.7in /  1006.4hPa East 2.9mph /  4.7km/h 3mph /  4.8km/h 95% 0in /  0.0mm 0 W/m2
07:38 36.9 °F /  2.7 °C 35.6 °F /  2 °C 29.7in /  1006.4hPa East 2mph /  3.2km/h 2mph /  3.2km/h 95% 0in /  0.0mm 0 W/m2
07:43 36.9 °F /  2.7 °C 35.6 °F /  2 °C 29.7in /  1006.4hPa East 2.9mph /  4.7km/h 3mph /  4.8km/h 95% 0in /  0.0mm 0 W/m2
07:48 36.9 °F /  2.7 °C 35.6 °F /  2 °C 29.7in /  1006.1hPa East 2.9mph /  4.7km/h 3mph /  4.8km/h 95% 0in /  0.0mm 0 W/m2
07:53 36.7 °F /  2.6 °C 35.4 °F /  1.9 °C 29.7in /  1006.1hPa NE 2.9mph /  4.7km/h 3mph /  4.8km/h 95% 0in /  0.0mm 0 W/m2
07:58 36.7 °F /  2.6 °C 35.4 °F /  1.9 °C 29.7in /  1006.1hPa ENE 0.9mph /  1.4km/h 3mph /  4.8km/h 95% 0in /  0.0mm 0 W/m2
08:03 36.7 °F /  2.6 °C 35.4 °F /  1.9 °C 29.7in /  1006.1hPa Calm   2mph /  3.2km/h 95% 0in /  0.0mm 0 W/m2
08:08 36.9 °F /  2.7 °C 35.6 °F /  2 °C 29.7in /  1005.8hPa ENE 4mph /  6.4km/h 5mph /  8km/h 95% 0in /  0.0mm 0 W/m2
08:13 36.9 °F /  2.7 °C 35.6 °F /  2 °C 29.7in /  1005.8hPa East 2mph /  3.2km/h 3mph /  4.8km/h 95% 0in /  0.0mm 0 W/m2
08:18 36.9 °F /  2.7 °C 35.6 °F /  2 °C 29.7in /  1005.8hPa SE 2.9mph /  4.7km/h 4mph /  6.4km/h 95% 0in /  0.0mm 0 W/m2
08:23 36.7 °F /  2.6 °C 35.4 °F /  1.9 °C 29.7in /  1005.8hPa ENE 2mph /  3.2km/h 4mph /  6.4km/h 95% 0in /  0.0mm 0 W/m2
08:28 36.7 °F /  2.6 °C 35.4 °F /  1.9 °C 29.7in /  1005.8hPa ENE 0.9mph /  1.4km/h 6mph /  9.7km/h 95% 0in /  0.0mm 0 W/m2
08:33 36.5 °F /  2.5 °C 34.9 °F /  1.6 °C 29.7in /  1005.4hPa East 2mph /  3.2km/h 4mph /  6.4km/h 94% 0in /  0.0mm 0 W/m2
08:38 36.3 °F /  2.4 °C 34.7 °F /  1.5 °C 29.7in /  1005.8hPa Calm   6mph /  9.7km/h 94% 0in /  0.0mm 0 W/m2
08:43 36.3 °F /  2.4 °C 35.1 °F /  1.7 °C 29.7in /  1005.4hPa East 2mph /  3.2km/h 4mph /  6.4km/h 95% 0in /  0.0mm 5 W/m2
08:48 36.3 °F /  2.4 °C 35.1 °F /  1.7 °C 29.7in /  1005.4hPa SE 2mph /  3.2km/h 4mph /  6.4km/h 95% 0in /  0.0mm 5 W/m2
08:53 36.5 °F /  2.5 °C 35.2 °F /  1.8 °C 29.7in /  1005.4hPa ENE 2.9mph /  4.7km/h 7mph /  11.3km/h 95% 0in /  0.0mm 5 W/m2
08:58 36.5 °F /  2.5 °C 35.2 °F /  1.8 °C 29.7in /  1005.1hPa Calm   7mph /  11.3km/h 95% 0in /  0.0mm 5 W/m2
09:03 36.5 °F /  2.5 °C 35.2 °F /  1.8 °C 29.7in /  1005.1hPa ENE 2mph /  3.2km/h 5mph /  8km/h 95% 0in /  0.0mm 5 W/m2
09:08 36.7 °F /  2.6 °C 35.4 °F /  1.9 °C 29.7in /  1005.1hPa ESE 0.9mph /  1.4km/h 7mph /  11.3km/h 95% 0in /  0.0mm 9 W/m2
09:13 36.7 °F /  2.6 °C 35.4 °F /  1.9 °C 29.7in /  1005.1hPa ENE 2.9mph /  4.7km/h 4mph /  6.4km/h 95% 0in /  0.0mm 7 W/m2
09:18 36.9 °F /  2.7 °C 35.6 °F /  2 °C 29.7in /  1005.1hPa East 0.9mph /  1.4km/h 3mph /  4.8km/h 95% 0in /  0.0mm 9 W/m2
09:23 36.9 °F /  2.7 °C 35.6 °F /  2 °C 29.7in /  1005.1hPa NE 2.9mph /  4.7km/h 3mph /  4.8km/h 95% 0in /  0.0mm 11 W/m2
09:28 36.9 °F /  2.7 °C 35.6 °F /  2 °C 29.7in /  1005.1hPa ENE 0.9mph /  1.4km/h 2mph /  3.2km/h 95% 0in /  0.0mm 12 W/m2
09:33 37 °F /  2.8 °C 35.8 °F /  2.1 °C 29.7in /  1005.1hPa Calm   3mph /  4.8km/h 95% 0in /  0.0mm 11 W/m2
09:38 37 °F /  2.8 °C 35.8 °F /  2.1 °C 29.7in /  1005.1hPa Calm   3mph /  4.8km/h 95% 0in /  0.0mm 11 W/m2
09:43 37 °F /  2.8 °C 35.8 °F /  2.1 °C 29.7in /  1005.1hPa East 2mph /  3.2km/h 4mph /  6.4km/h 95% 0in /  0.0mm 11 W/m2
09:48 37.2 °F /  2.9 °C 36 °F /  2.2 °C 29.7in /  1005.1hPa East 2.9mph /  4.7km/h 3mph /  4.8km/h 95% 0in /  0.0mm 11 W/m2
09:53 37.2 °F /  2.9 °C 36 °F /  2.2 °C 29.7in /  1004.7hPa NE 0.9mph /  1.4km/h 5mph /  8km/h 95% 0in /  0.0mm 14 W/m2
09:58 37.2 °F /  2.9 °C 36 °F /  2.2 °C 29.7in /  1004.7hPa East 0.9mph /  1.4km/h 4mph /  6.4km/h 95% 0in /  0.0mm 19 W/m2
10:03 37.2 °F /  2.9 °C 35.6 °F /  2 °C 29.7in /  1004.7hPa ENE 2.9mph /  4.7km/h 5mph /  8km/h 94% 0in /  0.0mm 21 W/m2
10:08 37.2 °F /  2.9 °C 35.6 °F /  2 °C 29.7in /  1004.4hPa ENE 2mph /  3.2km/h 3mph /  4.8km/h 94% 0in /  0.0mm 21 W/m2
10:13 37.2 °F /  2.9 °C 35.6 °F /  2 °C 29.7in /  1004.4hPa East 2mph /  3.2km/h 4mph /  6.4km/h 94% 0in /  0.0mm 25 W/m2
10:19 37.4 °F /  3 °C 36.1 °F /  2.3 °C 29.7in /  1004.4hPa ENE 0.9mph /  1.4km/h 5mph /  8km/h 95% 0in /  0.0mm 32 W/m2
10:24 37.6 °F /  3.1 °C 36.3 °F /  2.4 °C 29.7in /  1004.4hPa ENE 0.9mph /  1.4km/h 3mph /  4.8km/h 95% 0in /  0.0mm 42 W/m2
10:29 37.8 °F /  3.2 °C 36.5 °F /  2.5 °C 29.7in /  1004.1hPa ENE 0.9mph /  1.4km/h 2mph /  3.2km/h 95% 0in /  0.0mm 76 W/m2
10:34 37.8 °F /  3.2 °C 36.5 °F /  2.5 °C 29.7in /  1004.1hPa ENE 2.9mph /  4.7km/h 4mph /  6.4km/h 95% 0in /  0.0mm 58 W/m2
10:39 37.9 °F /  3.3 °C 36.7 °F /  2.6 °C 29.7in /  1004.1hPa East 2mph /  3.2km/h 5mph /  8km/h 95% 0in /  0.0mm 49 W/m2
10:44 38.1 °F /  3.4 °C 36.5 °F /  2.5 °C 29.7in /  1004.1hPa NNE 0.9mph /  1.4km/h 3mph /  4.8km/h 94% 0in /  0.0mm 30 W/m2
10:49 38.1 °F /  3.4 °C 36.5 °F /  2.5 °C 29.7in /  1004.1hPa East 0.9mph /  1.4km/h 2mph /  3.2km/h 94% 0in /  0.0mm 33 W/m2
10:54 38.1 °F /  3.4 °C 36.5 °F /  2.5 °C 29.6in /  1003.7hPa ENE 0.9mph /  1.4km/h 3mph /  4.8km/h 94% 0in /  0.0mm 46 W/m2
10:59 38.1 °F /  3.4 °C 36.5 °F /  2.5 °C 29.6in /  1003.7hPa ESE 2mph /  3.2km/h 3mph /  4.8km/h 94% 0in /  0.0mm 54 W/m2
11:04 38.3 °F /  3.5 °C 36.7 °F /  2.6 °C 29.6in /  1003.7hPa NE 0.9mph /  1.4km/h 2mph /  3.2km/h 94% 0in /  0.0mm 42 W/m2
11:09 38.5 °F /  3.6 °C 36.9 °F /  2.7 °C 29.6in /  1003.7hPa ENE 0.9mph /  1.4km/h 3mph /  4.8km/h 94% 0in /  0.0mm 56 W/m2
11:14 38.5 °F /  3.6 °C 36.9 °F /  2.7 °C 29.6in /  1003.7hPa East 4mph /  6.4km/h 5mph /  8km/h 94% 0in /  0.0mm 51 W/m2
11:19 38.7 °F /  3.7 °C 37 °F /  2.8 °C 29.6in /  1003.4hPa NNE 2mph /  3.2km/h 5mph /  8km/h 94% 0in /  0.0mm 49 W/m2
11:24 38.7 °F /  3.7 °C 37 °F /  2.8 °C 29.6in /  1003.0hPa East 2mph /  3.2km/h 4mph /  6.4km/h 94% 0in /  0.0mm 42 W/m2
11:29 38.8 °F /  3.8 °C 37 °F /  2.8 °C 29.6in /  1003.0hPa East 2.9mph /  4.7km/h 5mph /  8km/h 93% 0in /  0.0mm 70 W/m2
11:34 38.8 °F /  3.8 °C 37 °F /  2.8 °C 29.6in /  1003.0hPa East 2.9mph /  4.7km/h 3mph /  4.8km/h 93% 0in /  0.0mm 53 W/m2
11:39 38.8 °F /  3.8 °C 37 °F /  2.8 °C 29.6in /  1002.7hPa ENE 2mph /  3.2km/h 3mph /  4.8km/h 93% 0in /  0.0mm 47 W/m2
11:44 38.8 °F /  3.8 °C 37 °F /  2.8 °C 29.6in /  1002.7hPa East 4mph /  6.4km/h 4mph /  6.4km/h 93% 0in /  0.0mm 42 W/m2
11:49 38.8 °F /  3.8 °C 37 °F /  2.8 °C 29.6in /  1002.7hPa SE 0.9mph /  1.4km/h 4mph /  6.4km/h 93% 0in /  0.0mm 44 W/m2
11:54 38.8 °F /  3.8 °C 37 °F /  2.8 °C 29.6in /  1002.4hPa East 2.9mph /  4.7km/h 6mph /  9.7km/h 93% 0in /  0.0mm 65 W/m2
11:59 38.8 °F /  3.8 °C 37.2 °F /  2.9 °C 29.6in /  1002.4hPa ENE 2.9mph /  4.7km/h 8mph /  12.9km/h 94% 0in /  0.0mm 69 W/m2
12:04 38.8 °F /  3.8 °C 37.2 °F /  2.9 °C 29.6in /  1002.0hPa ESE 2.9mph /  4.7km/h 3mph /  4.8km/h 94% 0in /  0.0mm 44 W/m2
12:09 38.8 °F /  3.8 °C 37 °F /  2.8 °C 29.6in /  1002.0hPa ENE 2.9mph /  4.7km/h 8mph /  12.9km/h 93% 0in /  0.0mm 40 W/m2
12:14 38.7 °F /  3.7 °C 36.9 °F /  2.7 °C 29.6in /  1002.0hPa East 4mph /  6.4km/h 5mph /  8km/h 93% 0in /  0.0mm 42 W/m2
12:19 38.7 °F /  3.7 °C 37 °F /  2.8 °C 29.6in /  1001.7hPa East 2mph /  3.2km/h 4mph /  6.4km/h 94% 0in /  0.0mm 40 W/m2
12:24 38.7 °F /  3.7 °C 37 °F /  2.8 °C 29.6in /  1001.7hPa ESE 0.9mph /  1.4km/h 3mph /  4.8km/h 94% 0in /  0.0mm 51 W/m2
12:29 38.7 °F /  3.7 °C 37 °F /  2.8 °C 29.6in /  1001.4hPa East 0.9mph /  1.4km/h 5mph /  8km/h 94% 0in /  0.0mm 42 W/m2
12:34 38.7 °F /  3.7 °C 37 °F /  2.8 °C 29.6in /  1001.4hPa East 2mph /  3.2km/h 5mph /  8km/h 94% 0in /  0.0mm 42 W/m2
12:39 38.5 °F /  3.6 °C 36.9 °F /  2.7 °C 29.6in /  1001.4hPa East 0.9mph /  1.4km/h 8mph /  12.9km/h 94% 0in /  0.0mm 42 W/m2
12:44 38.5 °F /  3.6 °C 36.9 °F /  2.7 °C 29.6in /  1001.0hPa East 2mph /  3.2km/h 4mph /  6.4km/h 94% 0in /  0.0mm 44 W/m2
12:49 38.5 °F /  3.6 °C 36.9 °F /  2.7 °C 29.6in /  1001.0hPa ESE 2mph /  3.2km/h 8mph /  12.9km/h 94% 0in /  0.0mm 40 W/m2
12:54 38.5 °F /  3.6 °C 36.9 °F /  2.7 °C 29.6in /  1000.7hPa NE 2.9mph /  4.7km/h 5mph /  8km/h 94% 0in /  0.0mm 33 W/m2
12:59 38.5 °F /  3.6 °C 36.9 °F /  2.7 °C 29.6in /  1000.7hPa ENE 4.9mph /  7.9km/h 7mph /  11.3km/h 94% 0in /  0.0mm 37 W/m2
13:04 38.5 °F /  3.6 °C 36.9 °F /  2.7 °C 29.6in /  1000.7hPa ESE 0.9mph /  1.4km/h 9mph /  14.5km/h 94% 0in /  0.0mm 37 W/m2
13:09 38.5 °F /  3.6 °C 36.9 °F /  2.7 °C 29.5in /  1000.3hPa ENE 2mph /  3.2km/h 7mph /  11.3km/h 94% 0in /  0.0mm 28 W/m2
13:14 38.5 °F /  3.6 °C 36.9 °F /  2.7 °C 29.5in /  1000.3hPa ESE 2.9mph /  4.7km/h 9mph /  14.5km/h 94% 0in /  0.0mm 35 W/m2
13:19 38.5 °F /  3.6 °C 36.9 °F /  2.7 °C 29.5in /  1000.3hPa North 0.9mph /  1.4km/h 3mph /  4.8km/h 94% 0in /  0.0mm 33 W/m2
13:24 38.7 °F /  3.7 °C 37 °F /  2.8 °C 29.5in /  1000.0hPa ESE 0.9mph /  1.4km/h 5mph /  8km/h 94% 0in /  0.0mm 32 W/m2
13:29 38.7 °F /  3.7 °C 37 °F /  2.8 °C 29.5in /  1000.0hPa ESE 2.9mph /  4.7km/h 7mph /  11.3km/h 94% 0in /  0.0mm 28 W/m2
13:34 38.7 °F /  3.7 °C 37 °F /  2.8 °C 29.5in /  999.7hPa East 0.9mph /  1.4km/h 5mph /  8km/h 94% 0in /  0.0mm 30 W/m2
13:39 38.8 °F /  3.8 °C 37.2 °F /  2.9 °C 29.5in /  999.7hPa ENE 0.9mph /  1.4km/h 3mph /  4.8km/h 94% 0in /  0.0mm 33 W/m2
13:44 38.8 °F /  3.8 °C 37.2 °F /  2.9 °C 29.5in /  999.3hPa NE 2mph /  3.2km/h 7mph /  11.3km/h 94% 0in /  0.0mm 40 W/m2
13:49 39 °F /  3.9 °C 37.2 °F /  2.9 °C 29.5in /  999.3hPa ENE 0.9mph /  1.4km/h 4mph /  6.4km/h 93% 0in /  0.0mm 37 W/m2
13:54 39.4 °F /  4.1 °C 37.6 °F /  3.1 °C 29.5in /  999.3hPa East 2.9mph /  4.7km/h 5mph /  8km/h 93% 0in /  0.0mm 40 W/m2
13:59 39.4 °F /  4.1 °C 37.6 °F /  3.1 °C 29.5in /  999.0hPa ENE 2mph /  3.2km/h 4mph /  6.4km/h 93% 0in /  0.0mm 39 W/m2
14:04 39.6 °F /  4.2 °C 37.4 °F /  3 °C 29.5in /  999.0hPa SE 0.9mph /  1.4km/h 7mph /  11.3km/h 92% 0in /  0.0mm 33 W/m2
14:09 39.6 °F /  4.2 °C 37.4 °F /  3 °C 29.5in /  998.6hPa East 2.9mph /  4.7km/h 5mph /  8km/h 92% 0in /  0.0mm 30 W/m2
14:14 39.7 °F /  4.3 °C 37.6 °F /  3.1 °C 29.5in /  998.6hPa ENE 2mph /  3.2km/h 7mph /  11.3km/h 92% 0in /  0.0mm 30 W/m2
14:19 39.7 °F /  4.3 °C 37.6 °F /  3.1 °C 29.5in /  998.6hPa East 4mph /  6.4km/h 7mph /  11.3km/h 92% 0in /  0.0mm 33 W/m2
14:24 39.7 °F /  4.3 °C 37.6 °F /  3.1 °C 29.5in /  998.3hPa NE 2.9mph /  4.7km/h 3mph /  4.8km/h 92% 0in /  0.0mm 35 W/m2
14:29 39.7 °F /  4.3 °C 37.6 °F /  3.1 °C 29.5in /  998.3hPa East 4mph /  6.4km/h 7mph /  11.3km/h 92% 0in /  0.0mm 37 W/m2
14:34 39.9 °F /  4.4 °C 37.8 °F /  3.2 °C 29.5in /  998.3hPa Calm   6mph /  9.7km/h 92% 0in /  0.0mm 30 W/m2
14:39 39.9 °F /  4.4 °C 37.6 °F /  3.1 °C 29.5in /  998.0hPa ENE 2mph /  3.2km/h 4mph /  6.4km/h 91% 0in /  0.0mm 23 W/m2
14:44 39.9 °F /  4.4 °C 37.6 °F /  3.1 °C 29.5in /  998.0hPa Calm   4mph /  6.4km/h 91% 0in /  0.0mm 23 W/m2
14:49 39.9 °F /  4.4 °C 37.6 °F /  3.1 °C 29.5in /  998.0hPa ESE 2mph /  3.2km/h 6mph /  9.7km/h 91% 0in /  0.0mm 19 W/m2
14:54 39.9 °F /  4.4 °C 37.6 °F /  3.1 °C 29.5in /  998.0hPa ENE 2mph /  3.2km/h 6mph /  9.7km/h 91% 0in /  0.0mm 16 W/m2
14:59 40.1 °F /  4.5 °C 37.8 °F /  3.2 °C 29.5in /  998.0hPa East 2mph /  3.2km/h 4mph /  6.4km/h 91% 0in /  0.0mm 12 W/m2
15:04 40.1 °F /  4.5 °C 37.8 °F /  3.2 °C 29.5in /  997.6hPa NNE 2mph /  3.2km/h 4mph /  6.4km/h 91% 0in /  0.0mm 12 W/m2
15:09 40.1 °F /  4.5 °C 37.8 °F /  3.2 °C 29.5in /  997.6hPa ENE 2.9mph /  4.7km/h 8mph /  12.9km/h 91% 0in /  0.0mm 11 W/m2
15:14 40.1 °F /  4.5 °C 37.8 °F /  3.2 °C 29.5in /  997.6hPa East 8.1mph /  13km/h 8mph /  12.9km/h 91% 0in /  0.0mm 12 W/m2
15:19 40.1 °F /  4.5 °C 37.8 °F /  3.2 °C 29.5in /  997.3hPa ENE 4mph /  6.4km/h 5mph /  8km/h 91% 0in /  0.0mm 12 W/m2
15:24 40.3 °F /  4.6 °C 37.9 °F /  3.3 °C 29.5in /  997.3hPa ENE 2mph /  3.2km/h 4mph /  6.4km/h 91% 0in /  0.0mm 12 W/m2
15:29 40.3 °F /  4.6 °C 37.9 °F /  3.3 °C 29.5in /  997.3hPa ENE 4mph /  6.4km/h 7mph /  11.3km/h 91% 0in /  0.0mm 12 W/m2
15:34 40.3 °F /  4.6 °C 37.9 °F /  3.3 °C 29.4in /  997.0hPa ESE 4mph /  6.4km/h 7mph /  11.3km/h 91% 0in /  0.0mm 11 W/m2
15:39 40.3 °F /  4.6 °C 37.9 °F /  3.3 °C 29.4in /  997.0hPa ENE 4mph /  6.4km/h 5mph /  8km/h 91% 0in /  0.0mm 11 W/m2
15:44 40.3 °F /  4.6 °C 37.9 °F /  3.3 °C 29.4in /  997.0hPa ENE 2.9mph /  4.7km/h 4mph /  6.4km/h 91% 0in /  0.0mm 7 W/m2
15:49 40.3 °F /  4.6 °C 37.9 °F /  3.3 °C 29.4in /  997.0hPa East 4mph /  6.4km/h 5mph /  8km/h 91% 0in /  0.0mm 5 W/m2
15:54 40.5 °F /  4.7 °C 38.1 °F /  3.4 °C 29.4in /  997.0hPa East 2.9mph /  4.7km/h 5mph /  8km/h 91% 0in /  0.0mm 5 W/m2
15:59 40.5 °F /  4.7 °C 38.1 °F /  3.4 °C 29.4in /  996.6hPa ENE 2mph /  3.2km/h 6mph /  9.7km/h 91% 0in /  0.0mm 5 W/m2
16:04 40.5 °F /  4.7 °C 38.1 °F /  3.4 °C 29.4in /  996.6hPa East 2.9mph /  4.7km/h 8mph /  12.9km/h 91% 0in /  0.0mm 5 W/m2
16:09 40.5 °F /  4.7 °C 38.1 °F /  3.4 °C 29.4in /  996.6hPa ENE 2mph /  3.2km/h 5mph /  8km/h 91% 0in /  0.0mm 5 W/m2
16:14 40.5 °F /  4.7 °C 38.1 °F /  3.4 °C 29.4in /  996.3hPa East 4mph /  6.4km/h 7mph /  11.3km/h 91% 0in /  0.0mm 0 W/m2
16:19 40.6 °F /  4.8 °C 38.3 °F /  3.5 °C 29.4in /  996.3hPa ENE 2.9mph /  4.7km/h 6mph /  9.7km/h 91% 0in /  0.0mm 0 W/m2
16:24 40.6 °F /  4.8 °C 38.3 °F /  3.5 °C 29.4in /  995.9hPa East 4mph /  6.4km/h 6mph /  9.7km/h 91% 0in /  0.0mm 0 W/m2
16:29 40.6 °F /  4.8 °C 37.9 °F /  3.3 °C 29.4in /  995.9hPa ENE 2mph /  3.2km/h 7mph /  11.3km/h 90% 0in /  0.0mm 0 W/m2
16:34 40.8 °F /  4.9 °C 38.1 °F /  3.4 °C 29.4in /  995.9hPa East 4mph /  6.4km/h 7mph /  11.3km/h 90% 0in /  0.0mm 0 W/m2
16:39 40.8 °F /  4.9 °C 38.1 °F /  3.4 °C 29.4in /  995.6hPa ESE 2.9mph /  4.7km/h 7mph /  11.3km/h 90% 0in /  0.0mm 0 W/m2
16:44 40.8 °F /  4.9 °C 38.1 °F /  3.4 °C 29.4in /  995.6hPa ESE 2.9mph /  4.7km/h 7mph /  11.3km/h 90% 0in /  0.0mm 0 W/m2
16:49 40.8 °F /  4.9 °C 38.1 °F /  3.4 °C 29.4in /  995.6hPa East 4mph /  6.4km/h 8mph /  12.9km/h 90% 0in /  0.0mm 0 W/m2
16:54 40.8 °F /  4.9 °C 38.1 °F /  3.4 °C 29.4in /  995.6hPa ENE 2.9mph /  4.7km/h 6mph /  9.7km/h 90% 0in /  0.0mm 0 W/m2
16:59 40.8 °F /  4.9 °C 38.1 °F /  3.4 °C 29.4in /  995.3hPa ESE 2mph /  3.2km/h 4mph /  6.4km/h 90% 0in /  0.0mm 0 W/m2
17:04 40.8 °F /  4.9 °C 38.1 °F /  3.4 °C 29.4in /  995.3hPa East 4mph /  6.4km/h 7mph /  11.3km/h 90% 0in /  0.0mm 0 W/m2
17:09 40.8 °F /  4.9 °C 37.8 °F /  3.2 °C 29.4in /  995.3hPa NNE 0.9mph /  1.4km/h 11mph /  17.7km/h 89% 0in /  0.0mm 0 W/m2
17:14 40.8 °F /  4.9 °C 37.8 °F /  3.2 °C 29.4in /  995.3hPa East 6mph /  9.7km/h 7mph /  11.3km/h 89% 0in /  0.0mm 0 W/m2
17:19 40.8 °F /  4.9 °C 37.8 °F /  3.2 °C 29.4in /  994.9hPa ENE 4.9mph /  7.9km/h 11mph /  17.7km/h 89% 0in /  0.0mm 0 W/m2
17:24 40.8 °F /  4.9 °C 37.8 °F /  3.2 °C 29.4in /  994.9hPa ESE 6.9mph /  11.1km/h 11mph /  17.7km/h 89% 0in /  0.0mm 0 W/m2
17:29 40.8 °F /  4.9 °C 37.8 °F /  3.2 °C 29.4in /  994.6hPa East 6mph /  9.7km/h 11mph /  17.7km/h 89% 0in /  0.0mm 0 W/m2
17:34 40.8 °F /  4.9 °C 37.8 °F /  3.2 °C 29.4in /  994.6hPa ENE 4.9mph /  7.9km/h 9mph /  14.5km/h 89% 0in /  0.0mm 0 W/m2
17:39 40.8 °F /  4.9 °C 37.8 °F /  3.2 °C 29.4in /  994.2hPa ENE 2mph /  3.2km/h 11mph /  17.7km/h 89% 0in /  0.0mm 0 W/m2
17:44 40.8 °F /  4.9 °C 37.8 °F /  3.2 °C 29.4in /  994.2hPa NE 4mph /  6.4km/h 9mph /  14.5km/h 89% 0in /  0.0mm 0 W/m2
17:49 40.8 °F /  4.9 °C 37.8 °F /  3.2 °C 29.4in /  994.2hPa NNE 0.9mph /  1.4km/h 7mph /  11.3km/h 89% 0in /  0.0mm 0 W/m2
17:54 40.8 °F /  4.9 °C 37.8 °F /  3.2 °C 29.4in /  993.9hPa ENE 0.9mph /  1.4km/h 7mph /  11.3km/h 89% 0in /  0.0mm 0 W/m2
17:59 40.6 °F /  4.8 °C 37.6 °F /  3.1 °C 29.4in /  993.9hPa East 6.9mph /  11.1km/h 10mph /  16.1km/h 89% 0in /  0.0mm 0 W/m2
18:04 40.6 °F /  4.8 °C 37.6 °F /  3.1 °C 29.4in /  993.9hPa East 4mph /  6.4km/h 7mph /  11.3km/h 89% 0in /  0.0mm 0 W/m2
18:09 40.6 °F /  4.8 °C 37.6 °F /  3.1 °C 29.3in /  993.6hPa NE 2.9mph /  4.7km/h 9mph /  14.5km/h 89% 0in /  0.0mm 0 W/m2
18:14 40.6 °F /  4.8 °C 37.6 °F /  3.1 °C 29.3in /  993.6hPa ENE 4mph /  6.4km/h 4mph /  6.4km/h 89% 0in /  0.0mm 0 W/m2
18:19 40.6 °F /  4.8 °C 37.6 °F /  3.1 °C 29.3in /  993.6hPa ENE 2mph /  3.2km/h 7mph /  11.3km/h 89% 0in /  0.0mm 0 W/m2
18:24 40.5 °F /  4.7 °C 37.4 °F /  3 °C 29.3in /  993.6hPa East 6mph /  9.7km/h 7mph /  11.3km/h 89% 0in /  0.0mm 0 W/m2
18:29 40.5 °F /  4.7 °C 37.4 °F /  3 °C 29.3in /  993.2hPa ESE 0.9mph /  1.4km/h 3mph /  4.8km/h 89% 0in /  0.0mm 0 W/m2
18:34 40.3 °F /  4.6 °C 37.6 °F /  3.1 °C 29.3in /  993.2hPa East 4mph /  6.4km/h 9mph /  14.5km/h 90% 0in /  0.0mm 0 W/m2
18:39 40.3 °F /  4.6 °C 37.6 °F /  3.1 °C 29.3in /  993.2hPa East 2mph /  3.2km/h 5mph /  8km/h 90% 0in /  0.0mm 0 W/m2
18:44 40.3 °F /  4.6 °C 37.6 °F /  3.1 °C 29.3in /  992.9hPa ENE 2.9mph /  4.7km/h 9mph /  14.5km/h 90% 0in /  0.0mm 0 W/m2
18:49 40.1 °F /  4.5 °C 37.4 °F /  3 °C 29.3in /  992.9hPa NNE 0.9mph /  1.4km/h 5mph /  8km/h 90% 0in /  0.0mm 0 W/m2
18:54 40.1 °F /  4.5 °C 37.4 °F /  3 °C 29.3in /  992.9hPa ENE 4mph /  6.4km/h 10mph /  16.1km/h 90% 0in /  0.0mm 0 W/m2
18:59 39.9 °F /  4.4 °C 37.2 °F /  2.9 °C 29.3in /  992.9hPa East 4.9mph /  7.9km/h 5mph /  8km/h 90% 0in /  0.0mm 0 W/m2
19:04 39.9 °F /  4.4 °C 37.2 °F /  2.9 °C 29.3in /  992.5hPa ESE 4mph /  6.4km/h 11mph /  17.7km/h 90% 0in /  0.0mm 0 W/m2
19:09 39.9 °F /  4.4 °C 37.2 °F /  2.9 °C 29.3in /  992.5hPa ESE 2.9mph /  4.7km/h 6mph /  9.7km/h 90% 0in /  0.0mm 0 W/m2
19:14 39.9 °F /  4.4 °C 37.2 °F /  2.9 °C 29.3in /  992.5hPa ENE 2.9mph /  4.7km/h 11mph /  17.7km/h 90% 0in /  0.0mm 0 W/m2
19:19 39.7 °F /  4.3 °C 37 °F /  2.8 °C 29.3in /  992.2hPa East 2.9mph /  4.7km/h 9mph /  14.5km/h 90% 0in /  0.0mm 0 W/m2
19:24 39.7 °F /  4.3 °C 37 °F /  2.8 °C 29.3in /  992.2hPa South 0.9mph /  1.4km/h 4mph /  6.4km/h 90% 0in /  0.0mm 0 W/m2
19:29 39.7 °F /  4.3 °C 37 °F /  2.8 °C 29.3in /  992.2hPa ENE 4.9mph /  7.9km/h 8mph /  12.9km/h 90% 0in /  0.0mm 0 W/m2
19:34 39.7 °F /  4.3 °C 37 °F /  2.8 °C 29.3in /  992.2hPa SE 2mph /  3.2km/h 6mph /  9.7km/h 90% 0.01in /  0.2mm 0 W/m2
19:39 39.7 °F /  4.3 °C 37 °F /  2.8 °C 29.3in /  991.9hPa East 2mph /  3.2km/h 11mph /  17.7km/h 90% 0.01in /  0.2mm 0 W/m2
19:44 39.7 °F /  4.3 °C 37 °F /  2.8 °C 29.3in /  991.9hPa NE 4mph /  6.4km/h 8mph /  12.9km/h 90% 0.01in /  0.2mm 0 W/m2
19:49 39.7 °F /  4.3 °C 37 °F /  2.8 °C 29.3in /  991.9hPa Calm   11mph /  17.7km/h 90% 0.01in /  0.2mm 0 W/m2
19:55 39.7 °F /  4.3 °C 37.4 °F /  3 °C 29.3in /  991.5hPa SE 0.9mph /  1.4km/h 5mph /  8km/h 91% 0.01in /  0.2mm 0 W/m2
20:00 39.6 °F /  4.2 °C 37.2 °F /  2.9 °C 29.3in /  991.5hPa ESE 2mph /  3.2km/h 11mph /  17.7km/h 91% 0.02in /  0.5mm 0 W/m2
20:05 39.6 °F /  4.2 °C 37.2 °F /  2.9 °C 29.3in /  991.5hPa ENE 2.9mph /  4.7km/h 3mph /  4.8km/h 91% 0.02in /  0.5mm 0 W/m2
20:10 39.6 °F /  4.2 °C 37.2 °F /  2.9 °C 29.3in /  991.5hPa East 0.9mph /  1.4km/h 11mph /  17.7km/h 91% 0.02in /  0.5mm 0 W/m2
20:15 39.4 °F /  4.1 °C 37.2 °F /  2.9 °C 29.3in /  991.2hPa SE 2.9mph /  4.7km/h 6mph /  9.7km/h 92% 0.02in /  0.5mm 0 W/m2
20:20 39.4 °F /  4.1 °C 37.2 °F /  2.9 °C 29.3in /  991.2hPa ESE 0.9mph /  1.4km/h 9mph /  14.5km/h 92% 0.02in /  0.5mm 0 W/m2
20:25 39.4 °F /  4.1 °C 37.2 °F /  2.9 °C 29.3in /  991.2hPa ENE 2.9mph /  4.7km/h 7mph /  11.3km/h 92% 0.02in /  0.5mm 0 W/m2
20:30 39.4 °F /  4.1 °C 37.2 °F /  2.9 °C 29.3in /  990.9hPa East 2mph /  3.2km/h 10mph /  16.1km/h 92% 0.02in /  0.5mm 0 W/m2
20:35 39.4 °F /  4.1 °C 37.2 °F /  2.9 °C 29.3in /  990.9hPa ENE 2mph /  3.2km/h 5mph /  8km/h 92% 0.02in /  0.5mm 0 W/m2
20:40 39.4 °F /  4.1 °C 37.2 °F /  2.9 °C 29.3in /  990.9hPa East 6mph /  9.7km/h 9mph /  14.5km/h 92% 0.02in /  0.5mm 0 W/m2
20:45 39.4 °F /  4.1 °C 37.2 °F /  2.9 °C 29.3in /  990.5hPa ENE 2mph /  3.2km/h 8mph /  12.9km/h 92% 0.02in /  0.5mm 0 W/m2
20:50 39.4 °F /  4.1 °C 37.2 °F /  2.9 °C 29.3in /  990.5hPa ENE 2.9mph /  4.7km/h 4mph /  6.4km/h 92% 0.02in /  0.5mm 0 W/m2
20:55 39.4 °F /  4.1 °C 37.2 °F /  2.9 °C 29.2in /  990.2hPa ENE 2.9mph /  4.7km/h 8mph /  12.9km/h 92% 0.02in /  0.5mm 0 W/m2
21:00 39.4 °F /  4.1 °C 37.2 °F /  2.9 °C 29.2in /  990.2hPa ENE 2mph /  3.2km/h 5mph /  8km/h 92% 0.01in /  0.2mm 0 W/m2
21:05 39.4 °F /  4.1 °C 37.2 °F /  2.9 °C 29.2in /  990.2hPa East 6mph /  9.7km/h 6mph /  9.7km/h 92% 0.01in /  0.2mm 0 W/m2
21:10 39.4 °F /  4.1 °C 37.2 °F /  2.9 °C 29.2in /  990.2hPa East 2mph /  3.2km/h 6mph /  9.7km/h 92% 0.01in /  0.2mm 0 W/m2
21:15 39.4 °F /  4.1 °C 37.2 °F /  2.9 °C 29.2in /  989.8hPa ENE 2.9mph /  4.7km/h 8mph /  12.9km/h 92% 0in /  0.0mm 0 W/m2
21:20 39.4 °F /  4.1 °C 37.2 °F /  2.9 °C 29.2in /  989.8hPa ESE 4mph /  6.4km/h 4mph /  6.4km/h 92% 0in /  0.0mm 0 W/m2
21:25 39.4 °F /  4.1 °C 37.2 °F /  2.9 °C 29.2in /  989.8hPa ENE 2mph /  3.2km/h 8mph /  12.9km/h 92% 0in /  0.0mm 0 W/m2
21:30 39.4 °F /  4.1 °C 37.2 °F /  2.9 °C 29.2in /  989.5hPa East 6.9mph /  11.1km/h 8mph /  12.9km/h 92% 0in /  0.0mm 0 W/m2
21:35 39.6 °F /  4.2 °C 37.4 °F /  3 °C 29.2in /  989.5hPa ENE 8.9mph /  14.3km/h 9mph /  14.5km/h 92% 0in /  0.0mm 0 W/m2
21:40 39.6 °F /  4.2 °C 37.4 °F /  3 °C 29.2in /  989.5hPa East 4.9mph /  7.9km/h 7mph /  11.3km/h 92% 0in /  0.0mm 0 W/m2
21:45 39.6 °F /  4.2 °C 37.4 °F /  3 °C 29.2in /  989.2hPa ESE 2mph /  3.2km/h 7mph /  11.3km/h 92% 0in /  0.0mm 0 W/m2
21:50 39.6 °F /  4.2 °C 37.4 °F /  3 °C 29.2in /  989.2hPa NNE 4mph /  6.4km/h 7mph /  11.3km/h 92% 0.01in /  0.2mm 0 W/m2
21:55 39.6 °F /  4.2 °C 37.4 °F /  3 °C 29.2in /  988.8hPa East 2mph /  3.2km/h 6mph /  9.7km/h 92% 0.01in /  0.2mm 0 W/m2
22:00 39.6 °F /  4.2 °C 37.8 °F /  3.2 °C 29.2in /  988.8hPa East 8.1mph /  13km/h 8mph /  12.9km/h 93% 0.01in /  0.2mm 0 W/m2
22:05 39.6 °F /  4.2 °C 37.8 °F /  3.2 °C 29.2in /  988.8hPa ENE 4.9mph /  7.9km/h 13mph /  20.9km/h 93% 0.01in /  0.2mm 0 W/m2
22:10 39.6 °F /  4.2 °C 37.8 °F /  3.2 °C 29.2in /  988.8hPa NE 4mph /  6.4km/h 7mph /  11.3km/h 93% 0.01in /  0.2mm 0 W/m2
22:15 39.6 °F /  4.2 °C 37.8 °F /  3.2 °C 29.2in /  988.8hPa NE 4mph /  6.4km/h 13mph /  20.9km/h 93% 0.01in /  0.2mm 0 W/m2
22:20 39.6 °F /  4.2 °C 37.8 °F /  3.2 °C 29.2in /  988.5hPa East 2.9mph /  4.7km/h 9mph /  14.5km/h 93% 0.01in /  0.2mm 0 W/m2
22:25 39.6 °F /  4.2 °C 37.8 °F /  3.2 °C 29.2in /  988.5hPa ENE 4mph /  6.4km/h 8mph /  12.9km/h 93% 0.02in /  0.5mm 0 W/m2
22:30 39.6 °F /  4.2 °C 37.9 °F /  3.3 °C 29.2in /  988.1hPa East 2mph /  3.2km/h 4mph /  6.4km/h 94% 0.02in /  0.5mm 0 W/m2
22:35 39.6 °F /  4.2 °C 37.9 °F /  3.3 °C 29.2in /  988.1hPa ENE 2.9mph /  4.7km/h 5mph /  8km/h 94% 0.02in /  0.5mm 0 W/m2
22:40 39.6 °F /  4.2 °C 37.9 °F /  3.3 °C 29.2in /  988.1hPa Calm   9mph /  14.5km/h 94% 0.02in /  0.5mm 0 W/m2
22:45 39.6 °F /  4.2 °C 37.9 °F /  3.3 °C 29.2in /  988.1hPa ENE 2.9mph /  4.7km/h 7mph /  11.3km/h 94% 0.02in /  0.5mm 0 W/m2
22:50 39.6 °F /  4.2 °C 37.9 °F /  3.3 °C 29.2in /  988.1hPa NNE 2mph /  3.2km/h 8mph /  12.9km/h 94% 0.02in /  0.5mm 0 W/m2
22:55 39.7 °F /  4.3 °C 38.1 °F /  3.4 °C 29.2in /  987.8hPa ENE 4.9mph /  7.9km/h 11mph /  17.7km/h 94% 0.02in /  0.5mm 0 W/m2
23:00 39.7 °F /  4.3 °C 38.1 °F /  3.4 °C 29.2in /  987.8hPa ENE 6mph /  9.7km/h 6mph /  9.7km/h 94% 0.02in /  0.5mm 0 W/m2
23:05 39.7 °F /  4.3 °C 38.1 °F /  3.4 °C 29.2in /  987.5hPa East 2.9mph /  4.7km/h 7mph /  11.3km/h 94% 0.02in /  0.5mm 0 W/m2
23:10 39.7 °F /  4.3 °C 38.1 °F /  3.4 °C 29.2in /  987.5hPa ESE 4mph /  6.4km/h 5mph /  8km/h 94% 0.02in /  0.5mm 0 W/m2
23:15 39.7 °F /  4.3 °C 38.1 °F /  3.4 °C 29.2in /  987.1hPa NNE 2mph /  3.2km/h 9mph /  14.5km/h 94% 0.02in /  0.5mm 0 W/m2
23:20 39.7 °F /  4.3 °C 38.1 °F /  3.4 °C 29.2in /  987.1hPa ESE 6.9mph /  11.1km/h 9mph /  14.5km/h 94% 0.02in /  0.5mm 0 W/m2
23:25 39.7 °F /  4.3 °C 38.1 °F /  3.4 °C 29.2in /  987.1hPa ENE 6mph /  9.7km/h 11mph /  17.7km/h 94% 0.02in /  0.5mm 0 W/m2
23:30 39.7 °F /  4.3 °C 38.1 °F /  3.4 °C 29.2in /  987.1hPa ENE 2.9mph /  4.7km/h 5mph /  8km/h 94% 0.02in /  0.5mm 0 W/m2
23:35 39.7 °F /  4.3 °C 38.1 °F /  3.4 °C 29.2in /  987.1hPa East 6.9mph /  11.1km/h 11mph /  17.7km/h 94% 0.02in /  0.5mm 0 W/m2
23:40 39.9 °F /  4.4 °C 38.3 °F /  3.5 °C 29.1in /  986.8hPa NE 2mph /  3.2km/h 7mph /  11.3km/h 94% 0.02in /  0.5mm 0 W/m2
23:45 39.9 °F /  4.4 °C 38.3 °F /  3.5 °C 29.1in /  986.5hPa ENE 4mph /  6.4km/h 12mph /  19.3km/h 94% 0.02in /  0.5mm 0 W/m2
23:50 39.9 °F /  4.4 °C 38.7 °F /  3.7 °C 29.1in /  986.5hPa ENE 2mph /  3.2km/h 8mph /  12.9km/h 95% 0.02in /  0.5mm 0 W/m2
23:55 40.1 °F /  4.5 °C 38.8 °F /  3.8 °C 29.1in /  986.5hPa SE 8.1mph /  13km/h 9mph /  14.5km/h 95% 0.02in /  0.5mm 0 W/m2
Juneau County Weather
Compliments of Weather Underground - 4 mb